sensor_id;sensor_type;location;lat;lon;timestamp;P1;durP1;ratioP1;P2;durP2;ratioP2
20393;SDS011;10356;50.544;9.642;2023-07-24T00:00:49;3.00;;;2.25;;
20393;SDS011;10356;50.544;9.642;2023-07-24T00:03:15;2.67;;;2.20;;
20393;SDS011;10356;50.544;9.642;2023-07-24T00:05:42;3.92;;;2.28;;
20393;SDS011;10356;50.544;9.642;2023-07-24T00:08:09;3.30;;;2.35;;
20393;SDS011;10356;50.544;9.642;2023-07-24T00:10:36;3.03;;;2.25;;
20393;SDS011;10356;50.544;9.642;2023-07-24T00:13:02;3.33;;;2.50;;
20393;SDS011;10356;50.544;9.642;2023-07-24T00:15:29;3.45;;;2.40;;
20393;SDS011;10356;50.544;9.642;2023-07-24T00:17:55;4.35;;;2.10;;
20393;SDS011;10356;50.544;9.642;2023-07-24T00:20:22;3.85;;;2.50;;
20393;SDS011;10356;50.544;9.642;2023-07-24T00:22:49;2.55;;;2.10;;
20393;SDS011;10356;50.544;9.642;2023-07-24T00:25:17;6.28;;;2.25;;
20393;SDS011;10356;50.544;9.642;2023-07-24T00:27:44;2.92;;;2.47;;
20393;SDS011;10356;50.544;9.642;2023-07-24T00:30:10;2.67;;;2.10;;
20393;SDS011;10356;50.544;9.642;2023-07-24T00:32:37;4.18;;;2.33;;
20393;SDS011;10356;50.544;9.642;2023-07-24T00:35:03;3.20;;;2.22;;
20393;SDS011;10356;50.544;9.642;2023-07-24T00:37:31;2.70;;;2.17;;
20393;SDS011;10356;50.544;9.642;2023-07-24T00:39:57;3.22;;;2.05;;
20393;SDS011;10356;50.544;9.642;2023-07-24T00:42:25;2.95;;;2.28;;
20393;SDS011;10356;50.544;9.642;2023-07-24T00:44:51;3.55;;;2.55;;
20393;SDS011;10356;50.544;9.642;2023-07-24T00:47:18;4.90;;;2.35;;
20393;SDS011;10356;50.544;9.642;2023-07-24T00:49:44;4.05;;;2.50;;
20393;SDS011;10356;50.544;9.642;2023-07-24T00:52:11;3.88;;;2.47;;
20393;SDS011;10356;50.544;9.642;2023-07-24T00:54:38;3.78;;;2.10;;
20393;SDS011;10356;50.544;9.642;2023-07-24T00:57:05;3.15;;;2.28;;
20393;SDS011;10356;50.544;9.642;2023-07-24T00:59:33;3.00;;;2.53;;
20393;SDS011;10356;50.544;9.642;2023-07-24T01:02:00;2.55;;;2.28;;
20393;SDS011;10356;50.544;9.642;2023-07-24T01:04:27;2.38;;;2.10;;
20393;SDS011;10356;50.544;9.642;2023-07-24T01:06:53;3.25;;;1.90;;
20393;SDS011;10356;50.544;9.642;2023-07-24T01:09:21;4.05;;;2.50;;
20393;SDS011;10356;50.544;9.642;2023-07-24T01:11:50;3.30;;;2.13;;
20393;SDS011;10356;50.544;9.642;2023-07-24T01:14:21;4.20;;;2.40;;
20393;SDS011;10356;50.544;9.642;2023-07-24T01:16:52;3.67;;;2.78;;
20393;SDS011;10356;50.544;9.642;2023-07-24T01:19:34;3.85;;;2.28;;
20393;SDS011;10356;50.544;9.642;2023-07-24T01:22:07;4.32;;;2.78;;
20393;SDS011;10356;50.544;9.642;2023-07-24T01:24:44;3.88;;;2.65;;
20393;SDS011;10356;50.544;9.642;2023-07-24T01:27:24;2.85;;;2.20;;
20393;SDS011;10356;50.544;9.642;2023-07-24T01:29:51;2.72;;;2.28;;
20393;SDS011;10356;50.544;9.642;2023-07-24T01:32:18;2.67;;;2.40;;
20393;SDS011;10356;50.544;9.642;2023-07-24T01:34:45;2.70;;;2.20;;
20393;SDS011;10356;50.544;9.642;2023-07-24T01:37:12;4.82;;;2.50;;
20393;SDS011;10356;50.544;9.642;2023-07-24T01:39:39;5.50;;;2.40;;
20393;SDS011;10356;50.544;9.642;2023-07-24T01:42:07;4.10;;;2.58;;
20393;SDS011;10356;50.544;9.642;2023-07-24T01:44:35;5.00;;;2.50;;
20393;SDS011;10356;50.544;9.642;2023-07-24T01:47:02;4.80;;;2.25;;
20393;SDS011;10356;50.544;9.642;2023-07-24T01:49:28;3.28;;;2.38;;
20393;SDS011;10356;50.544;9.642;2023-07-24T01:51:55;3.15;;;2.70;;
20393;SDS011;10356;50.544;9.642;2023-07-24T01:54:22;4.18;;;2.67;;
20393;SDS011;10356;50.544;9.642;2023-07-24T01:56:48;3.60;;;2.22;;
20393;SDS011;10356;50.544;9.642;2023-07-24T01:59:15;3.63;;;2.50;;
20393;SDS011;10356;50.544;9.642;2023-07-24T02:01:43;3.80;;;2.70;;
20393;SDS011;10356;50.544;9.642;2023-07-24T02:04:09;3.92;;;2.40;;
20393;SDS011;10356;50.544;9.642;2023-07-24T02:06:36;3.50;;;2.00;;
20393;SDS011;10356;50.544;9.642;2023-07-24T02:09:02;5.10;;;2.55;;
20393;SDS011;10356;50.544;9.642;2023-07-24T02:11:29;2.95;;;2.20;;
20393;SDS011;10356;50.544;9.642;2023-07-24T02:13:55;4.18;;;2.67;;
20393;SDS011;10356;50.544;9.642;2023-07-24T02:16:21;3.83;;;2.65;;
20393;SDS011;10356;50.544;9.642;2023-07-24T02:18:49;4.53;;;2.42;;
20393;SDS011;10356;50.544;9.642;2023-07-24T02:21:16;2.80;;;2.47;;
20393;SDS011;10356;50.544;9.642;2023-07-24T02:23:42;6.60;;;2.78;;
20393;SDS011;10356;50.544;9.642;2023-07-24T02:26:09;3.13;;;2.80;;
20393;SDS011;10356;50.544;9.642;2023-07-24T02:28:35;4.45;;;2.97;;
20393;SDS011;10356;50.544;9.642;2023-07-24T02:31:01;5.70;;;2.78;;
20393;SDS011;10356;50.544;9.642;2023-07-24T02:33:28;3.95;;;2.30;;
20393;SDS011;10356;50.544;9.642;2023-07-24T02:35:56;3.88;;;2.50;;
20393;SDS011;10356;50.544;9.642;2023-07-24T02:38:22;2.90;;;2.60;;
20393;SDS011;10356;50.544;9.642;2023-07-24T02:40:49;3.55;;;2.53;;
20393;SDS011;10356;50.544;9.642;2023-07-24T02:43:15;5.28;;;2.67;;
20393;SDS011;10356;50.544;9.642;2023-07-24T02:45:41;3.00;;;2.35;;
20393;SDS011;10356;50.544;9.642;2023-07-24T02:48:08;2.67;;;2.42;;
20393;SDS011;10356;50.544;9.642;2023-07-24T02:50:34;3.40;;;2.70;;
20393;SDS011;10356;50.544;9.642;2023-07-24T02:53:02;4.00;;;2.85;;
20393;SDS011;10356;50.544;9.642;2023-07-24T02:55:29;4.20;;;2.60;;
20393;SDS011;10356;50.544;9.642;2023-07-24T02:57:56;3.35;;;2.78;;
20393;SDS011;10356;50.544;9.642;2023-07-24T03:00:22;4.80;;;2.88;;
20393;SDS011;10356;50.544;9.642;2023-07-24T03:02:49;3.63;;;2.60;;
20393;SDS011;10356;50.544;9.642;2023-07-24T03:05:15;4.18;;;2.83;;
20393;SDS011;10356;50.544;9.642;2023-07-24T03:07:42;3.75;;;2.78;;
20393;SDS011;10356;50.544;9.642;2023-07-24T03:10:10;4.70;;;2.45;;
20393;SDS011;10356;50.544;9.642;2023-07-24T03:12:36;4.15;;;2.53;;
20393;SDS011;10356;50.544;9.642;2023-07-24T03:15:03;3.85;;;2.67;;
20393;SDS011;10356;50.544;9.642;2023-07-24T03:17:30;5.88;;;2.90;;
20393;SDS011;10356;50.544;9.642;2023-07-24T03:19:56;4.25;;;2.70;;
20393;SDS011;10356;50.544;9.642;2023-07-24T03:22:23;5.13;;;2.70;;
20393;SDS011;10356;50.544;9.642;2023-07-24T03:24:49;5.32;;;3.03;;
20393;SDS011;10356;50.544;9.642;2023-07-24T03:27:17;3.90;;;3.00;;
20393;SDS011;10356;50.544;9.642;2023-07-24T03:29:43;3.70;;;2.80;;
20393;SDS011;10356;50.544;9.642;2023-07-24T03:32:10;6.78;;;2.97;;
20393;SDS011;10356;50.544;9.642;2023-07-24T03:34:36;5.80;;;2.88;;
20393;SDS011;10356;50.544;9.642;2023-07-24T03:37:03;5.13;;;3.00;;
20393;SDS011;10356;50.544;9.642;2023-07-24T03:39:29;6.05;;;3.13;;
20393;SDS011;10356;50.544;9.642;2023-07-24T03:41:56;5.95;;;2.90;;
20393;SDS011;10356;50.544;9.642;2023-07-24T03:44:24;5.88;;;2.85;;
20393;SDS011;10356;50.544;9.642;2023-07-24T03:46:50;5.30;;;2.70;;
20393;SDS011;10356;50.544;9.642;2023-07-24T03:49:16;3.22;;;2.45;;
20393;SDS011;10356;50.544;9.642;2023-07-24T03:51:43;5.30;;;2.30;;
20393;SDS011;10356;50.544;9.642;2023-07-24T03:54:09;5.28;;;2.95;;
20393;SDS011;10356;50.544;9.642;2023-07-24T03:56:36;4.95;;;2.63;;
20393;SDS011;10356;50.544;9.642;2023-07-24T03:59:02;3.78;;;2.95;;
20393;SDS011;10356;50.544;9.642;2023-07-24T04:01:30;5.85;;;2.70;;
20393;SDS011;10356;50.544;9.642;2023-07-24T04:03:57;5.72;;;2.70;;
20393;SDS011;10356;50.544;9.642;2023-07-24T04:06:24;5.97;;;2.80;;
20393;SDS011;10356;50.544;9.642;2023-07-24T04:08:50;6.32;;;3.03;;
20393;SDS011;10356;50.544;9.642;2023-07-24T04:11:17;3.58;;;2.80;;
20393;SDS011;10356;50.544;9.642;2023-07-24T04:13:43;3.58;;;2.60;;
20393;SDS011;10356;50.544;9.642;2023-07-24T04:16:09;3.08;;;2.55;;
20393;SDS011;10356;50.544;9.642;2023-07-24T04:18:37;4.40;;;2.67;;
20393;SDS011;10356;50.544;9.642;2023-07-24T04:21:04;3.38;;;2.97;;
20393;SDS011;10356;50.544;9.642;2023-07-24T04:23:30;3.00;;;2.30;;
20393;SDS011;10356;50.544;9.642;2023-07-24T04:25:57;4.55;;;2.58;;
20393;SDS011;10356;50.544;9.642;2023-07-24T04:28:23;5.05;;;2.83;;
20393;SDS011;10356;50.544;9.642;2023-07-24T04:30:49;4.32;;;2.70;;
20393;SDS011;10356;50.544;9.642;2023-07-24T04:33:16;4.75;;;2.85;;
20393;SDS011;10356;50.544;9.642;2023-07-24T04:35:44;4.35;;;2.58;;
20393;SDS011;10356;50.544;9.642;2023-07-24T04:38:13;5.50;;;2.80;;
20393;SDS011;10356;50.544;9.642;2023-07-24T04:40:43;4.25;;;2.95;;
20393;SDS011;10356;50.544;9.642;2023-07-24T04:43:09;4.68;;;2.92;;
20393;SDS011;10356;50.544;9.642;2023-07-24T04:45:36;3.08;;;2.55;;
20393;SDS011;10356;50.544;9.642;2023-07-24T04:48:03;3.15;;;2.65;;
20393;SDS011;10356;50.544;9.642;2023-07-24T04:50:29;3.08;;;2.75;;
20393;SDS011;10356;50.544;9.642;2023-07-24T04:52:57;3.25;;;2.67;;
20393;SDS011;10356;50.544;9.642;2023-07-24T04:55:24;3.85;;;2.53;;
20393;SDS011;10356;50.544;9.642;2023-07-24T04:57:50;2.90;;;2.47;;
20393;SDS011;10356;50.544;9.642;2023-07-24T05:00:17;3.65;;;2.90;;
20393;SDS011;10356;50.544;9.642;2023-07-24T05:02:43;5.63;;;3.22;;
20393;SDS011;10356;50.544;9.642;2023-07-24T05:05:10;3.88;;;3.13;;
20393;SDS011;10356;50.544;9.642;2023-07-24T05:07:36;3.75;;;2.47;;
20393;SDS011;10356;50.544;9.642;2023-07-24T05:10:05;3.75;;;2.97;;
20393;SDS011;10356;50.544;9.642;2023-07-24T05:12:32;4.72;;;2.60;;
20393;SDS011;10356;50.544;9.642;2023-07-24T05:14:58;4.13;;;2.47;;
20393;SDS011;10356;50.544;9.642;2023-07-24T05:17:25;2.60;;;2.30;;
20393;SDS011;10356;50.544;9.642;2023-07-24T05:19:51;4.32;;;2.78;;
20393;SDS011;10356;50.544;9.642;2023-07-24T05:22:18;3.78;;;2.60;;
20393;SDS011;10356;50.544;9.642;2023-07-24T05:24:44;5.82;;;3.20;;
20393;SDS011;10356;50.544;9.642;2023-07-24T05:27:12;8.90;;;3.10;;
20393;SDS011;10356;50.544;9.642;2023-07-24T05:29:41;4.40;;;2.90;;
20393;SDS011;10356;50.544;9.642;2023-07-24T05:32:07;4.22;;;3.20;;
20393;SDS011;10356;50.544;9.642;2023-07-24T05:34:34;3.15;;;2.70;;
20393;SDS011;10356;50.544;9.642;2023-07-24T05:37:00;4.65;;;3.00;;
20393;SDS011;10356;50.544;9.642;2023-07-24T05:39:27;3.72;;;2.90;;
20393;SDS011;10356;50.544;9.642;2023-07-24T05:41:55;3.47;;;2.97;;
20393;SDS011;10356;50.544;9.642;2023-07-24T05:44:23;8.02;;;3.13;;
20393;SDS011;10356;50.544;9.642;2023-07-24T05:46:49;3.97;;;3.20;;
20393;SDS011;10356;50.544;9.642;2023-07-24T05:49:16;4.03;;;3.10;;
20393;SDS011;10356;50.544;9.642;2023-07-24T05:51:42;4.57;;;3.13;;
20393;SDS011;10356;50.544;9.642;2023-07-24T05:54:09;5.38;;;3.83;;
20393;SDS011;10356;50.544;9.642;2023-07-24T05:56:35;4.68;;;3.35;;
20393;SDS011;10356;50.544;9.642;2023-07-24T05:59:02;4.95;;;3.45;;
20393;SDS011;10356;50.544;9.642;2023-07-24T06:01:30;4.40;;;2.97;;
20393;SDS011;10356;50.544;9.642;2023-07-24T06:03:56;4.72;;;3.10;;
20393;SDS011;10356;50.544;9.642;2023-07-24T06:06:22;6.82;;;3.42;;
20393;SDS011;10356;50.544;9.642;2023-07-24T06:08:49;4.32;;;3.20;;
20393;SDS011;10356;50.544;9.642;2023-07-24T06:11:16;5.28;;;3.33;;
20393;SDS011;10356;50.544;9.642;2023-07-24T06:13:42;5.07;;;3.28;;
20393;SDS011;10356;50.544;9.642;2023-07-24T06:16:09;6.53;;;3.63;;
20393;SDS011;10356;50.544;9.642;2023-07-24T06:18:39;6.80;;;3.90;;
20393;SDS011;10356;50.544;9.642;2023-07-24T06:21:05;4.35;;;3.53;;
20393;SDS011;10356;50.544;9.642;2023-07-24T06:23:32;5.90;;;3.53;;
20393;SDS011;10356;50.544;9.642;2023-07-24T06:25:58;5.15;;;3.45;;
20393;SDS011;10356;50.544;9.642;2023-07-24T06:28:25;5.70;;;3.88;;
20393;SDS011;10356;50.544;9.642;2023-07-24T06:30:51;4.82;;;3.60;;
20393;SDS011;10356;50.544;9.642;2023-07-24T06:33:19;5.38;;;3.38;;
20393;SDS011;10356;50.544;9.642;2023-07-24T06:35:47;4.70;;;3.70;;
20393;SDS011;10356;50.544;9.642;2023-07-24T06:38:14;5.70;;;3.30;;
20393;SDS011;10356;50.544;9.642;2023-07-24T06:40:41;5.05;;;3.83;;
20393;SDS011;10356;50.544;9.642;2023-07-24T06:43:08;3.88;;;3.38;;
20393;SDS011;10356;50.544;9.642;2023-07-24T06:45:34;4.13;;;3.45;;
20393;SDS011;10356;50.544;9.642;2023-07-24T06:48:01;3.80;;;3.22;;
20393;SDS011;10356;50.544;9.642;2023-07-24T06:50:27;5.80;;;3.60;;
20393;SDS011;10356;50.544;9.642;2023-07-24T06:52:55;4.68;;;3.83;;
20393;SDS011;10356;50.544;9.642;2023-07-24T06:55:22;4.55;;;3.80;;
20393;SDS011;10356;50.544;9.642;2023-07-24T06:57:48;3.78;;;3.35;;
20393;SDS011;10356;50.544;9.642;2023-07-24T07:00:15;5.22;;;3.88;;
20393;SDS011;10356;50.544;9.642;2023-07-24T07:02:42;3.75;;;3.35;;
20393;SDS011;10356;50.544;9.642;2023-07-24T07:05:08;3.78;;;3.38;;
20393;SDS011;10356;50.544;9.642;2023-07-24T07:07:35;5.20;;;3.22;;
20393;SDS011;10356;50.544;9.642;2023-07-24T07:10:03;5.35;;;3.67;;
20393;SDS011;10356;50.544;9.642;2023-07-24T07:12:30;5.28;;;4.07;;
20393;SDS011;10356;50.544;9.642;2023-07-24T07:14:57;5.35;;;4.10;;
20393;SDS011;10356;50.544;9.642;2023-07-24T07:17:23;4.63;;;3.58;;
20393;SDS011;10356;50.544;9.642;2023-07-24T07:19:50;4.50;;;3.97;;
20393;SDS011;10356;50.544;9.642;2023-07-24T07:22:16;4.50;;;3.60;;
20393;SDS011;10356;50.544;9.642;2023-07-24T07:24:42;4.30;;;3.30;;
20393;SDS011;10356;50.544;9.642;2023-07-24T07:27:12;6.28;;;3.83;;
20393;SDS011;10356;50.544;9.642;2023-07-24T07:29:42;4.93;;;3.85;;
20393;SDS011;10356;50.544;9.642;2023-07-24T07:32:08;4.60;;;3.45;;
20393;SDS011;10356;50.544;9.642;2023-07-24T07:34:35;5.32;;;3.90;;
20393;SDS011;10356;50.544;9.642;2023-07-24T07:37:03;5.07;;;3.75;;
20393;SDS011;10356;50.544;9.642;2023-07-24T07:39:30;5.90;;;4.05;;
20393;SDS011;10356;50.544;9.642;2023-07-24T07:41:57;4.93;;;3.60;;
20393;SDS011;10356;50.544;9.642;2023-07-24T07:44:25;4.75;;;3.63;;
20393;SDS011;10356;50.544;9.642;2023-07-24T07:46:51;3.95;;;3.33;;
20393;SDS011;10356;50.544;9.642;2023-07-24T07:49:18;5.45;;;3.63;;
20393;SDS011;10356;50.544;9.642;2023-07-24T07:51:44;5.60;;;4.30;;
20393;SDS011;10356;50.544;9.642;2023-07-24T07:54:11;5.50;;;3.80;;
20393;SDS011;10356;50.544;9.642;2023-07-24T07:56:38;4.18;;;3.55;;
20393;SDS011;10356;50.544;9.642;2023-07-24T07:59:04;4.80;;;3.88;;
20393;SDS011;10356;50.544;9.642;2023-07-24T08:01:32;8.20;;;3.85;;
20393;SDS011;10356;50.544;9.642;2023-07-24T08:03:59;4.57;;;4.18;;
20393;SDS011;10356;50.544;9.642;2023-07-24T08:06:25;5.53;;;4.20;;
20393;SDS011;10356;50.544;9.642;2023-07-24T08:08:51;5.50;;;3.78;;
20393;SDS011;10356;50.544;9.642;2023-07-24T08:11:18;5.85;;;4.10;;
20393;SDS011;10356;50.544;9.642;2023-07-24T08:13:44;5.28;;;3.70;;
20393;SDS011;10356;50.544;9.642;2023-07-24T08:16:14;4.43;;;3.33;;
20393;SDS011;10356;50.544;9.642;2023-07-24T08:18:44;4.63;;;3.58;;
20393;SDS011;10356;50.544;9.642;2023-07-24T08:21:12;4.07;;;3.45;;
20393;SDS011;10356;50.544;9.642;2023-07-24T08:23:38;5.22;;;3.90;;
20393;SDS011;10356;50.544;9.642;2023-07-24T08:26:05;6.45;;;3.83;;
20393;SDS011;10356;50.544;9.642;2023-07-24T08:28:32;5.72;;;4.18;;
20393;SDS011;10356;50.544;9.642;2023-07-24T08:30:59;5.57;;;3.67;;
20393;SDS011;10356;50.544;9.642;2023-07-24T08:33:27;3.50;;;3.20;;
20393;SDS011;10356;50.544;9.642;2023-07-24T08:36:01;3.80;;;3.20;;
20393;SDS011;10356;50.544;9.642;2023-07-24T08:38:29;4.40;;;3.65;;
20393;SDS011;10356;50.544;9.642;2023-07-24T08:41:02;5.78;;;3.78;;
20393;SDS011;10356;50.544;9.642;2023-07-24T08:43:30;5.70;;;4.20;;
20393;SDS011;10356;50.544;9.642;2023-07-24T08:45:58;5.00;;;3.60;;
20393;SDS011;10356;50.544;9.642;2023-07-24T08:48:25;6.32;;;4.28;;
20393;SDS011;10356;50.544;9.642;2023-07-24T08:50:54;4.78;;;3.78;;
20393;SDS011;10356;50.544;9.642;2023-07-24T08:53:23;4.50;;;3.67;;
20393;SDS011;10356;50.544;9.642;2023-07-24T08:55:50;5.82;;;3.80;;
20393;SDS011;10356;50.544;9.642;2023-07-24T08:58:19;5.57;;;3.67;;
20393;SDS011;10356;50.544;9.642;2023-07-24T09:00:45;4.28;;;3.60;;
20393;SDS011;10356;50.544;9.642;2023-07-24T09:03:12;8.45;;;3.95;;
20393;SDS011;10356;50.544;9.642;2023-07-24T09:05:39;3.90;;;3.40;;
20393;SDS011;10356;50.544;9.642;2023-07-24T09:08:05;4.72;;;3.30;;
20393;SDS011;10356;50.544;9.642;2023-07-24T09:10:33;9.98;;;4.10;;
20393;SDS011;10356;50.544;9.642;2023-07-24T09:13:00;10.77;;;4.20;;
20393;SDS011;10356;50.544;9.642;2023-07-24T09:15:28;4.97;;;4.00;;
20393;SDS011;10356;50.544;9.642;2023-07-24T09:17:55;4.13;;;3.70;;
20393;SDS011;10356;50.544;9.642;2023-07-24T09:20:21;5.47;;;4.03;;
20393;SDS011;10356;50.544;9.642;2023-07-24T09:22:49;4.25;;;3.50;;
20393;SDS011;10356;50.544;9.642;2023-07-24T09:25:16;4.80;;;4.13;;
20393;SDS011;10356;50.544;9.642;2023-07-24T09:27:44;4.78;;;3.95;;
20393;SDS011;10356;50.544;9.642;2023-07-24T09:30:12;5.78;;;3.53;;
20393;SDS011;10356;50.544;9.642;2023-07-24T09:32:39;7.88;;;4.15;;
20393;SDS011;10356;50.544;9.642;2023-07-24T09:35:15;4.18;;;3.70;;
20393;SDS011;10356;50.544;9.642;2023-07-24T09:37:42;6.30;;;4.00;;
20393;SDS011;10356;50.544;9.642;2023-07-24T09:40:09;6.82;;;4.03;;
20393;SDS011;10356;50.544;9.642;2023-07-24T09:42:37;4.93;;;3.60;;
20393;SDS011;10356;50.544;9.642;2023-07-24T09:45:07;7.03;;;3.75;;
20393;SDS011;10356;50.544;9.642;2023-07-24T09:47:34;4.22;;;3.53;;
20393;SDS011;10356;50.544;9.642;2023-07-24T09:50:02;5.78;;;3.65;;
20393;SDS011;10356;50.544;9.642;2023-07-24T09:52:30;5.95;;;4.32;;
20393;SDS011;10356;50.544;9.642;2023-07-24T09:54:59;6.90;;;3.50;;
20393;SDS011;10356;50.544;9.642;2023-07-24T09:57:31;4.40;;;3.58;;
20393;SDS011;10356;50.544;9.642;2023-07-24T09:59:58;4.55;;;3.70;;
20393;SDS011;10356;50.544;9.642;2023-07-24T10:02:28;6.28;;;4.35;;
20393;SDS011;10356;50.544;9.642;2023-07-24T10:04:56;5.95;;;3.97;;
20393;SDS011;10356;50.544;9.642;2023-07-24T10:07:22;4.90;;;4.35;;
20393;SDS011;10356;50.544;9.642;2023-07-24T10:09:49;4.40;;;3.92;;
20393;SDS011;10356;50.544;9.642;2023-07-24T10:12:16;7.10;;;4.53;;
20393;SDS011;10356;50.544;9.642;2023-07-24T10:14:43;5.72;;;4.32;;
20393;SDS011;10356;50.544;9.642;2023-07-24T10:17:11;6.45;;;4.10;;
20393;SDS011;10356;50.544;9.642;2023-07-24T10:19:40;6.53;;;4.07;;
20393;SDS011;10356;50.544;9.642;2023-07-24T10:22:08;5.47;;;4.68;;
20393;SDS011;10356;50.544;9.642;2023-07-24T10:24:35;6.35;;;4.32;;
20393;SDS011;10356;50.544;9.642;2023-07-24T10:27:02;5.85;;;4.05;;
20393;SDS011;10356;50.544;9.642;2023-07-24T10:29:33;5.53;;;4.40;;
20393;SDS011;10356;50.544;9.642;2023-07-24T10:32:00;5.05;;;4.55;;
20393;SDS011;10356;50.544;9.642;2023-07-24T10:34:35;6.70;;;4.75;;
20393;SDS011;10356;50.544;9.642;2023-07-24T10:37:06;9.15;;;4.68;;
20393;SDS011;10356;50.544;9.642;2023-07-24T10:39:37;10.32;;;5.05;;
20393;SDS011;10356;50.544;9.642;2023-07-24T10:42:06;7.00;;;4.68;;
20393;SDS011;10356;50.544;9.642;2023-07-24T10:44:33;6.13;;;4.55;;
20393;SDS011;10356;50.544;9.642;2023-07-24T10:47:00;9.70;;;4.47;;
20393;SDS011;10356;50.544;9.642;2023-07-24T10:49:26;5.72;;;4.65;;
20393;SDS011;10356;50.544;9.642;2023-07-24T10:51:54;5.43;;;4.53;;
20393;SDS011;10356;50.544;9.642;2023-07-24T10:54:23;5.78;;;4.70;;
20393;SDS011;10356;50.544;9.642;2023-07-24T10:56:49;9.15;;;5.15;;
20393;SDS011;10356;50.544;9.642;2023-07-24T10:59:16;6.63;;;4.75;;
20393;SDS011;10356;50.544;9.642;2023-07-24T11:01:42;6.55;;;5.03;;
20393;SDS011;10356;50.544;9.642;2023-07-24T11:04:09;12.82;;;5.85;;
20393;SDS011;10356;50.544;9.642;2023-07-24T11:06:37;8.18;;;5.28;;
20393;SDS011;10356;50.544;9.642;2023-07-24T11:09:04;6.57;;;4.93;;
20393;SDS011;10356;50.544;9.642;2023-07-24T11:11:32;6.78;;;5.13;;
20393;SDS011;10356;50.544;9.642;2023-07-24T11:14:00;6.20;;;4.90;;
20393;SDS011;10356;50.544;9.642;2023-07-24T11:16:27;7.55;;;5.60;;
20393;SDS011;10356;50.544;9.642;2023-07-24T11:18:56;6.82;;;4.95;;
20393;SDS011;10356;50.544;9.642;2023-07-24T11:21:23;7.82;;;5.95;;
20393;SDS011;10356;50.544;9.642;2023-07-24T11:23:50;8.02;;;5.75;;
20393;SDS011;10356;50.544;9.642;2023-07-24T11:26:18;9.18;;;5.85;;
20393;SDS011;10356;50.544;9.642;2023-07-24T11:28:46;10.07;;;5.95;;
20393;SDS011;10356;50.544;9.642;2023-07-24T11:31:13;11.90;;;5.78;;
20393;SDS011;10356;50.544;9.642;2023-07-24T11:33:40;10.35;;;5.53;;
20393;SDS011;10356;50.544;9.642;2023-07-24T11:36:09;8.05;;;5.82;;
20393;SDS011;10356;50.544;9.642;2023-07-24T11:38:36;8.20;;;6.40;;
20393;SDS011;10356;50.544;9.642;2023-07-24T11:41:04;6.75;;;5.82;;
20393;SDS011;10356;50.544;9.642;2023-07-24T11:43:30;9.48;;;5.85;;
20393;SDS011;10356;50.544;9.642;2023-07-24T11:45:58;8.68;;;5.15;;
20393;SDS011;10356;50.544;9.642;2023-07-24T11:48:25;8.63;;;5.68;;
20393;SDS011;10356;50.544;9.642;2023-07-24T11:50:52;10.50;;;5.57;;
20393;SDS011;10356;50.544;9.642;2023-07-24T11:53:21;7.85;;;5.60;;
20393;SDS011;10356;50.544;9.642;2023-07-24T11:55:49;13.63;;;6.10;;
20393;SDS011;10356;50.544;9.642;2023-07-24T11:58:16;7.50;;;5.78;;
20393;SDS011;10356;50.544;9.642;2023-07-24T12:00:43;8.63;;;6.18;;
20393;SDS011;10356;50.544;9.642;2023-07-24T12:03:13;7.93;;;6.38;;
20393;SDS011;10356;50.544;9.642;2023-07-24T12:05:40;7.32;;;5.80;;
20393;SDS011;10356;50.544;9.642;2023-07-24T12:08:08;9.82;;;6.00;;
20393;SDS011;10356;50.544;9.642;2023-07-24T12:10:35;7.50;;;5.63;;
20393;SDS011;10356;50.544;9.642;2023-07-24T12:13:03;8.23;;;6.10;;
20393;SDS011;10356;50.544;9.642;2023-07-24T12:15:30;7.28;;;5.88;;
20393;SDS011;10356;50.544;9.642;2023-07-24T12:17:58;9.65;;;5.88;;
20393;SDS011;10356;50.544;9.642;2023-07-24T12:20:26;8.15;;;5.68;;
20393;SDS011;10356;50.544;9.642;2023-07-24T12:22:52;7.22;;;5.53;;
20393;SDS011;10356;50.544;9.642;2023-07-24T12:25:20;8.68;;;5.57;;
20393;SDS011;10356;50.544;9.642;2023-07-24T12:27:47;6.18;;;5.20;;
20393;SDS011;10356;50.544;9.642;2023-07-24T12:30:13;6.63;;;5.45;;
20393;SDS011;10356;50.544;9.642;2023-07-24T12:32:40;12.75;;;5.22;;
20393;SDS011;10356;50.544;9.642;2023-07-24T12:35:07;7.88;;;4.78;;
20393;SDS011;10356;50.544;9.642;2023-07-24T12:37:36;8.68;;;5.25;;
20393;SDS011;10356;50.544;9.642;2023-07-24T12:40:04;9.02;;;4.78;;
20393;SDS011;10356;50.544;9.642;2023-07-24T12:42:32;6.22;;;4.70;;
20393;SDS011;10356;50.544;9.642;2023-07-24T12:44:58;5.68;;;4.63;;
20393;SDS011;10356;50.544;9.642;2023-07-24T12:47:25;6.28;;;4.57;;
20393;SDS011;10356;50.544;9.642;2023-07-24T12:49:51;6.40;;;5.00;;
20393;SDS011;10356;50.544;9.642;2023-07-24T12:52:20;8.27;;;4.40;;
20393;SDS011;10356;50.544;9.642;2023-07-24T12:54:48;5.72;;;4.32;;
20393;SDS011;10356;50.544;9.642;2023-07-24T12:57:15;5.20;;;4.40;;
20393;SDS011;10356;50.544;9.642;2023-07-24T12:59:41;8.40;;;4.82;;
20393;SDS011;10356;50.544;9.642;2023-07-24T13:02:08;7.07;;;4.25;;
20393;SDS011;10356;50.544;9.642;2023-07-24T13:04:34;6.10;;;4.85;;
20393;SDS011;10356;50.544;9.642;2023-07-24T13:07:01;5.72;;;4.97;;
20393;SDS011;10356;50.544;9.642;2023-07-24T13:09:29;8.07;;;4.97;;
20393;SDS011;10356;50.544;9.642;2023-07-24T13:11:57;7.93;;;4.93;;
20393;SDS011;10356;50.544;9.642;2023-07-24T13:14:23;6.22;;;4.68;;
20393;SDS011;10356;50.544;9.642;2023-07-24T13:16:50;7.28;;;4.00;;
20393;SDS011;10356;50.544;9.642;2023-07-24T13:19:16;7.20;;;4.68;;
20393;SDS011;10356;50.544;9.642;2023-07-24T13:21:43;5.07;;;4.47;;
20393;SDS011;10356;50.544;9.642;2023-07-24T13:24:10;5.88;;;4.63;;
20393;SDS011;10356;50.544;9.642;2023-07-24T13:26:37;5.70;;;5.10;;
20393;SDS011;10356;50.544;9.642;2023-07-24T13:29:06;7.22;;;4.35;;
20393;SDS011;10356;50.544;9.642;2023-07-24T13:31:32;5.30;;;4.70;;
20393;SDS011;10356;50.544;9.642;2023-07-24T13:34:00;8.77;;;5.30;;
20393;SDS011;10356;50.544;9.642;2023-07-24T13:36:26;7.20;;;5.78;;
20393;SDS011;10356;50.544;9.642;2023-07-24T13:38:53;5.82;;;5.20;;
20393;SDS011;10356;50.544;9.642;2023-07-24T13:41:19;9.48;;;5.57;;
20393;SDS011;10356;50.544;9.642;2023-07-24T13:43:46;6.45;;;5.13;;
20393;SDS011;10356;50.544;9.642;2023-07-24T13:46:14;10.43;;;5.60;;
20393;SDS011;10356;50.544;9.642;2023-07-24T13:48:41;7.32;;;5.53;;
20393;SDS011;10356;50.544;9.642;2023-07-24T13:51:07;8.15;;;5.63;;
20393;SDS011;10356;50.544;9.642;2023-07-24T13:53:34;7.18;;;5.68;;
20393;SDS011;10356;50.544;9.642;2023-07-24T13:56:01;7.40;;;5.35;;
20393;SDS011;10356;50.544;9.642;2023-07-24T13:58:27;8.27;;;5.28;;
20393;SDS011;10356;50.544;9.642;2023-07-24T14:00:54;8.05;;;5.55;;
20393;SDS011;10356;50.544;9.642;2023-07-24T14:03:22;7.13;;;5.40;;
20393;SDS011;10356;50.544;9.642;2023-07-24T14:05:51;9.50;;;5.78;;
20393;SDS011;10356;50.544;9.642;2023-07-24T14:08:17;10.18;;;6.00;;
20393;SDS011;10356;50.544;9.642;2023-07-24T14:10:44;6.97;;;5.60;;
20393;SDS011;10356;50.544;9.642;2023-07-24T14:13:10;7.18;;;5.40;;
20393;SDS011;10356;50.544;9.642;2023-07-24T14:15:37;9.60;;;5.70;;
20393;SDS011;10356;50.544;9.642;2023-07-24T14:18:03;8.18;;;5.53;;
20393;SDS011;10356;50.544;9.642;2023-07-24T14:20:31;8.00;;;5.72;;
20393;SDS011;10356;50.544;9.642;2023-07-24T14:22:57;5.57;;;5.07;;
20393;SDS011;10356;50.544;9.642;2023-07-24T14:25:24;7.43;;;5.68;;
20393;SDS011;10356;50.544;9.642;2023-07-24T14:27:51;5.65;;;5.07;;
20393;SDS011;10356;50.544;9.642;2023-07-24T14:30:17;8.75;;;5.70;;
20393;SDS011;10356;50.544;9.642;2023-07-24T14:32:44;6.93;;;5.35;;
20393;SDS011;10356;50.544;9.642;2023-07-24T14:35:10;6.55;;;5.43;;
20393;SDS011;10356;50.544;9.642;2023-07-24T14:37:38;7.38;;;5.15;;
20393;SDS011;10356;50.544;9.642;2023-07-24T14:40:05;6.63;;;4.68;;
20393;SDS011;10356;50.544;9.642;2023-07-24T14:42:32;5.15;;;4.10;;
20393;SDS011;10356;50.544;9.642;2023-07-24T14:44:59;7.32;;;4.63;;
20393;SDS011;10356;50.544;9.642;2023-07-24T14:47:27;4.68;;;3.67;;